createdAt,value
2022-12-11T00:00:31.050Z,14.27
2022-12-11T00:06:11.958Z,7.72
2022-12-11T00:08:57.190Z,8.70
2022-12-11T00:11:24.841Z,9.57
2022-12-11T00:13:52.608Z,11.25
2022-12-11T00:16:26.539Z,13.90
2022-12-11T00:22:03.866Z,7.32
2022-12-11T00:27:41.685Z,10.32
2022-12-11T00:30:09.884Z,11.50
2022-12-11T00:32:37.968Z,10.88
2022-12-11T00:35:06.122Z,10.38
2022-12-11T00:37:33.550Z,6.78
2022-12-11T00:40:15.048Z,9.18
2022-12-11T00:42:43.045Z,13.65
2022-12-11T00:45:11.029Z,13.60
2022-12-11T00:47:39.206Z,9.20
2022-12-11T00:50:07.027Z,11.35
2022-12-11T00:52:35.523Z,9.88
2022-12-11T00:55:18.094Z,10.98
2022-12-11T00:57:48.937Z,9.75
2022-12-11T01:00:18.268Z,12.75
2022-12-11T01:02:47.953Z,11.27
2022-12-11T01:05:16.579Z,13.88
2022-12-11T01:08:27.452Z,6.97
2022-12-11T01:11:06.303Z,12.93
2022-12-11T01:13:33.827Z,10.27
2022-12-11T01:16:08.043Z,10.05
2022-12-11T01:18:39.046Z,31.55
2022-12-11T01:21:08.208Z,13.32
2022-12-11T01:23:41.090Z,10.75
2022-12-11T01:26:21.352Z,12.35
2022-12-11T01:28:52.325Z,15.13
2022-12-11T01:31:21.016Z,12.82
2022-12-11T01:33:58.199Z,9.02
2022-12-11T01:36:25.875Z,13.40
2022-12-11T01:38:54.618Z,15.70
2022-12-11T01:41:21.785Z,14.02
2022-12-11T01:44:29.148Z,11.45
2022-12-11T01:46:56.303Z,10.73
2022-12-11T01:49:27.447Z,13.02
2022-12-11T01:52:07.899Z,11.18
2022-12-11T01:54:35.523Z,16.63
2022-12-11T01:57:06.392Z,10.05
2022-12-11T01:59:37.929Z,12.57
2022-12-11T02:02:24.765Z,10.20
2022-12-11T02:04:52.020Z,10.40
2022-12-11T02:07:19.799Z,10.13
2022-12-11T02:09:50.475Z,13.57
2022-12-11T02:12:49.073Z,9.18
2022-12-11T02:15:33.311Z,7.88
2022-12-11T02:18:13.287Z,10.57
2022-12-11T02:21:11.005Z,13.95
2022-12-11T02:23:44.008Z,13.23
2022-12-11T02:26:23.132Z,9.93
2022-12-11T02:28:56.072Z,10.07
2022-12-11T02:31:43.666Z,9.63
2022-12-11T02:34:39.897Z,14.52
2022-12-11T02:37:33.604Z,8.63
2022-12-11T02:40:08.016Z,12.27
2022-12-11T02:42:38.185Z,12.13
2022-12-11T02:45:07.899Z,10.48
2022-12-11T02:47:38.833Z,10.57
2022-12-11T02:50:13.813Z,11.63
2022-12-11T02:52:42.836Z,14.25
2022-12-11T02:55:13.674Z,10.23
2022-12-11T03:00:29.422Z,11.45
2022-12-11T03:02:57.426Z,8.95
2022-12-11T03:05:24.999Z,8.32
2022-12-11T03:07:52.629Z,8.52
2022-12-11T03:10:20.413Z,9.68
2022-12-11T03:12:54.123Z,11.65
2022-12-11T03:15:30.364Z,10.68
2022-12-11T03:18:29.080Z,10.20
2022-12-11T03:21:12.446Z,10.88
2022-12-11T03:24:12.065Z,11.23
2022-12-11T03:26:56.461Z,8.57
2022-12-11T03:29:36.504Z,12.48
2022-12-11T03:32:14.170Z,11.00
2022-12-11T03:35:08.722Z,8.27
2022-12-11T03:37:40.154Z,9.15
2022-12-11T03:40:12.951Z,9.93
2022-12-11T03:42:42.028Z,11.73
2022-12-11T03:45:13.885Z,11.98
2022-12-11T03:47:43.379Z,7.80
2022-12-11T03:50:16.087Z,7.70
2022-12-11T03:52:46.264Z,8.38
2022-12-11T03:55:17.323Z,13.90
2022-12-11T03:57:44.849Z,13.35
2022-12-11T04:00:15.337Z,10.40
2022-12-11T04:02:43.375Z,7.40
2022-12-11T04:05:11.928Z,14.77
2022-12-11T04:07:44.163Z,12.05
2022-12-11T04:10:17.673Z,11.18
2022-12-11T04:12:47.606Z,11.93
2022-12-11T04:15:17.213Z,10.13
2022-12-11T04:18:04.836Z,9.43
2022-12-11T04:20:52.981Z,7.20
2022-12-11T04:23:40.045Z,9.15
2022-12-11T04:26:12.912Z,10.27
2022-12-11T04:28:40.593Z,10.70
2022-12-11T04:31:12.807Z,9.70
2022-12-11T04:33:40.064Z,7.43
2022-12-11T04:36:08.129Z,12.77
2022-12-11T04:38:35.481Z,8.05
2022-12-11T04:41:05.972Z,8.70
2022-12-11T04:43:33.215Z,8.43
2022-12-11T04:46:10.661Z,8.80
2022-12-11T04:48:38.515Z,9.95
2022-12-11T04:51:06.904Z,8.25
2022-12-11T04:53:34.693Z,9.63
2022-12-11T04:56:02.265Z,10.82
2022-12-11T04:58:29.377Z,8.48
2022-12-11T05:00:56.477Z,10.63
2022-12-11T05:03:23.968Z,11.35
2022-12-11T05:05:52.975Z,9.63
2022-12-11T05:08:22.555Z,12.13
2022-12-11T05:11:01.188Z,8.73
2022-12-11T05:13:29.178Z,8.57
2022-12-11T05:16:00.984Z,10.82
2022-12-11T05:18:28.278Z,14.13
2022-12-11T05:21:01.005Z,13.10
2022-12-11T05:23:28.686Z,11.73
2022-12-11T05:25:57.873Z,12.10
2022-12-11T05:28:29.089Z,11.00
2022-12-11T05:31:05.095Z,12.88
2022-12-11T05:33:32.911Z,12.05
2022-12-11T05:36:01.005Z,7.40
2022-12-11T05:38:28.141Z,8.05
2022-12-11T05:41:07.483Z,12.20
2022-12-11T05:43:36.603Z,10.68
2022-12-11T05:46:13.464Z,10.65
2022-12-11T05:51:10.821Z,5.65
2022-12-11T05:53:38.897Z,7.03
2022-12-11T05:56:16.654Z,9.20
2022-12-11T05:58:44.707Z,10.27
2022-12-11T06:01:15.330Z,6.80
2022-12-11T06:03:42.557Z,11.05
2022-12-11T06:06:10.421Z,15.07
2022-12-11T06:08:37.912Z,11.23
2022-12-11T06:11:05.403Z,19.20
2022-12-11T06:13:33.015Z,15.15
2022-12-11T06:16:05.430Z,18.83
2022-12-11T06:18:36.360Z,10.40
2022-12-11T06:21:11.592Z,10.07
2022-12-11T06:23:38.465Z,11.68
2022-12-11T06:26:05.520Z,11.90
2022-12-11T06:28:32.445Z,10.85
2022-12-11T06:31:00.018Z,9.23
2022-12-11T06:33:27.121Z,10.30
2022-12-11T06:35:54.169Z,14.23
2022-12-11T06:38:21.054Z,12.73
2022-12-11T06:40:55.962Z,18.20
2022-12-11T06:43:22.886Z,16.27
2022-12-11T06:45:50.117Z,12.85
2022-12-11T06:48:18.029Z,12.05
2022-12-11T06:50:45.222Z,8.93
2022-12-11T06:53:13.577Z,8.82
2022-12-11T06:55:42.328Z,10.82
2022-12-11T06:58:10.793Z,9.18
2022-12-11T07:00:38.973Z,7.95
2022-12-11T07:03:06.581Z,12.38
2022-12-11T07:05:33.997Z,13.43
2022-12-11T07:08:01.543Z,7.50
2022-12-11T07:10:28.959Z,13.48
2022-12-11T07:12:55.951Z,9.18
2022-12-11T07:15:23.036Z,14.02
2022-12-11T07:17:49.965Z,15.38
2022-12-11T07:20:17.881Z,11.10
2022-12-11T07:22:46.775Z,16.52
2022-12-11T07:25:14.491Z,20.33
2022-12-11T07:27:41.820Z,14.57
2022-12-11T07:30:09.574Z,16.25
2022-12-11T07:32:36.985Z,14.90
2022-12-11T07:35:04.774Z,18.30
2022-12-11T07:37:31.786Z,19.40
2022-12-11T07:39:58.929Z,23.20
2022-12-11T07:42:25.826Z,18.80
2022-12-11T07:44:52.784Z,23.67
2022-12-11T07:47:19.615Z,22.25
2022-12-11T07:49:46.507Z,10.35
2022-12-11T07:52:13.391Z,14.85
2022-12-11T07:54:40.384Z,17.25
2022-12-11T07:57:13.714Z,13.63
2022-12-11T07:59:41.820Z,18.58
2022-12-11T08:02:11.774Z,19.00
2022-12-11T08:04:39.013Z,14.70
2022-12-11T08:07:06.769Z,17.27
2022-12-11T08:09:33.611Z,22.50
2022-12-11T08:12:00.703Z,17.77
2022-12-11T08:14:27.566Z,13.85
2022-12-11T08:16:54.498Z,17.70
2022-12-11T08:19:21.595Z,18.90
2022-12-11T08:21:48.534Z,20.60
2022-12-11T08:24:20.072Z,15.38
2022-12-11T08:26:55.910Z,16.75
2022-12-11T08:29:22.901Z,17.17
2022-12-11T08:31:50.099Z,13.07
2022-12-11T08:34:17.013Z,12.20
2022-12-11T08:36:44.238Z,17.90
2022-12-11T08:39:11.188Z,21.80
2022-12-11T08:41:38.043Z,15.07
2022-12-11T08:44:06.114Z,20.45
2022-12-11T08:46:33.108Z,21.80
2022-12-11T08:49:00.266Z,21.20
2022-12-11T08:51:28.753Z,17.45
2022-12-11T08:53:57.702Z,22.02
2022-12-11T08:56:25.979Z,20.52
2022-12-11T08:58:53.889Z,19.02
2022-12-11T09:01:25.916Z,19.67
2022-12-11T09:03:54.262Z,17.63
2022-12-11T09:06:23.563Z,14.85
2022-12-11T09:08:53.152Z,20.67
2022-12-11T09:11:23.320Z,13.80
2022-12-11T09:13:50.875Z,35.38
2022-12-11T09:16:20.036Z,23.90
2022-12-11T09:18:50.609Z,17.30
2022-12-11T09:21:20.426Z,19.30
2022-12-11T09:23:47.466Z,24.75
2022-12-11T09:26:16.906Z,27.42
2022-12-11T09:28:46.520Z,20.80
2022-12-11T09:33:46.143Z,20.65
2022-12-11T09:36:13.532Z,21.60
2022-12-11T09:38:43.474Z,19.85
2022-12-11T09:41:22.493Z,17.15
2022-12-11T09:44:11.188Z,20.48
2022-12-11T09:46:40.171Z,16.73
2022-12-11T09:49:27.371Z,15.98
2022-12-11T09:52:11.184Z,16.83
2022-12-11T09:54:43.801Z,16.38
2022-12-11T09:57:25.949Z,18.20
2022-12-11T10:00:11.362Z,16.10
2022-12-11T10:02:53.346Z,17.25
2022-12-11T10:05:47.578Z,16.65
2022-12-11T10:08:25.230Z,15.98
2022-12-11T10:11:17.985Z,13.82
2022-12-11T10:14:08.673Z,15.82
2022-12-11T10:16:38.907Z,16.80
2022-12-11T10:19:12.620Z,13.32
2022-12-11T10:21:42.312Z,13.48
2022-12-11T10:25:07.587Z,14.40
2022-12-11T10:27:22.784Z,12.52
2022-12-11T10:30:03.371Z,13.95
2022-12-11T10:33:05.897Z,14.73
2022-12-11T10:35:45.599Z,12.63
2022-12-11T10:38:27.855Z,13.57
2022-12-11T10:41:01.349Z,12.57
2022-12-11T10:43:41.553Z,12.95
2022-12-11T10:46:21.529Z,11.45
2022-12-11T10:48:50.813Z,14.32
2022-12-11T10:51:17.820Z,16.33
2022-12-11T10:54:06.911Z,12.68
2022-12-11T10:56:38.111Z,12.38
2022-12-11T10:59:05.419Z,11.43
2022-12-11T11:01:35.408Z,11.55
2022-12-11T11:04:19.222Z,10.98
2022-12-11T11:06:46.244Z,11.20
2022-12-11T11:09:32.471Z,11.05
2022-12-11T11:12:04.432Z,12.13
2022-12-11T11:14:34.416Z,13.63
2022-12-11T11:17:01.491Z,13.93
2022-12-11T11:19:34.791Z,12.30
2022-12-11T11:22:07.515Z,14.93
2022-12-11T11:24:41.600Z,12.80
2022-12-11T11:27:39.372Z,14.05
2022-12-11T11:30:18.537Z,13.68
2022-12-11T11:32:45.687Z,15.77
2022-12-11T11:35:12.932Z,12.32
2022-12-11T11:37:44.649Z,14.20
2022-12-11T11:40:33.036Z,12.23
2022-12-11T11:46:15.892Z,13.18
2022-12-11T11:49:47.751Z,12.65
2022-12-11T11:52:29.137Z,13.23
2022-12-11T11:55:22.432Z,13.07
2022-12-11T11:58:07.392Z,14.82
2022-12-11T12:00:34.450Z,63.50
2022-12-11T12:03:19.507Z,24.35
2022-12-11T12:05:53.565Z,57.47
2022-12-11T12:08:34.168Z,80.07
2022-12-11T12:11:13.149Z,26.33
2022-12-11T12:14:22.735Z,17.77
2022-12-11T12:17:14.793Z,20.83
2022-12-11T12:19:54.493Z,112.57
2022-12-11T12:22:33.639Z,232.18
2022-12-11T12:25:10.499Z,166.25
2022-12-11T12:27:53.727Z,57.55
2022-12-11T12:30:23.306Z,30.45
2022-12-11T12:35:38.455Z,19.58
2022-12-11T12:38:25.362Z,17.55
2022-12-11T12:41:17.460Z,23.27
2022-12-11T12:44:11.498Z,17.10
2022-12-11T12:46:53.579Z,16.92
2022-12-11T12:49:41.297Z,14.32
2022-12-11T12:52:37.171Z,16.02
2022-12-11T12:55:23.643Z,12.23
2022-12-11T12:57:57.523Z,17.10
2022-12-11T13:00:30.021Z,15.70
2022-12-11T13:02:57.206Z,14.35
2022-12-11T13:05:31.077Z,12.38
2022-12-11T13:08:01.413Z,16.00
2022-12-11T13:10:31.086Z,17.98
2022-12-11T13:12:59.372Z,13.73
2022-12-11T13:15:35.316Z,12.85
2022-12-11T13:18:06.885Z,14.80
2022-12-11T13:20:34.769Z,16.83
2022-12-11T13:23:07.842Z,16.70
2022-12-11T13:25:50.657Z,14.27
2022-12-11T13:28:54.458Z,15.35
2022-12-11T13:31:22.986Z,14.50
2022-12-11T13:33:56.496Z,11.77
2022-12-11T13:36:31.426Z,15.07
2022-12-11T13:39:02.487Z,13.30
2022-12-11T13:41:30.145Z,11.23
2022-12-11T13:43:57.989Z,12.57
2022-12-11T13:46:29.238Z,13.85
2022-12-11T13:49:00.862Z,11.27
2022-12-11T13:51:30.602Z,9.85
2022-12-11T13:54:18.834Z,13.93
2022-12-11T13:57:08.086Z,11.05
2022-12-11T13:59:37.429Z,12.55
2022-12-11T14:02:19.701Z,11.27
2022-12-11T14:04:49.658Z,11.05
2022-12-11T14:07:25.132Z,13.70
2022-12-11T14:09:56.975Z,22.10
2022-12-11T14:12:24.734Z,21.10
2022-12-11T14:14:56.876Z,31.48
2022-12-11T14:17:34.762Z,34.20
2022-12-11T14:20:07.468Z,33.85
2022-12-11T14:22:35.064Z,25.25
2022-12-11T14:25:16.717Z,26.60
2022-12-11T14:27:53.172Z,26.73
2022-12-11T14:30:23.111Z,30.88
2022-12-11T14:32:51.523Z,25.02
2022-12-11T14:35:29.578Z,20.90
2022-12-11T14:38:02.483Z,16.75
2022-12-11T14:40:36.042Z,16.50
2022-12-11T14:43:10.313Z,12.73
2022-12-11T14:45:40.531Z,17.02
2022-12-11T14:50:50.074Z,15.63
2022-12-11T14:53:29.850Z,13.63
2022-12-11T14:56:00.018Z,14.00
2022-12-11T14:58:29.016Z,14.20
2022-12-11T15:01:00.571Z,16.55
2022-12-11T15:03:34.391Z,12.90
2022-12-11T15:06:03.211Z,14.98
2022-12-11T15:08:33.658Z,13.43
2022-12-11T15:11:09.154Z,13.80
2022-12-11T15:13:39.775Z,12.73
2022-12-11T15:16:07.797Z,12.07
2022-12-11T15:18:38.348Z,10.77
2022-12-11T15:21:09.532Z,12.73
2022-12-11T15:23:57.368Z,14.32
2022-12-11T15:26:33.593Z,10.23
2022-12-11T15:29:02.700Z,13.63
2022-12-11T15:31:34.052Z,10.70
2022-12-11T15:34:01.597Z,9.23
2022-12-11T15:36:36.099Z,11.85
2022-12-11T15:39:09.384Z,10.18
2022-12-11T15:41:36.599Z,11.88
2022-12-11T15:44:04.443Z,18.90
2022-12-11T15:46:36.466Z,14.65
2022-12-11T15:49:12.395Z,12.57
2022-12-11T15:51:43.110Z,11.68
2022-12-11T15:54:10.602Z,15.85
2022-12-11T15:56:52.099Z,13.40
2022-12-11T15:59:19.917Z,16.40
2022-12-11T16:01:46.894Z,13.18
2022-12-11T16:04:14.023Z,11.90
2022-12-11T16:06:45.303Z,10.55
2022-12-11T16:09:12.703Z,12.23
2022-12-11T16:11:40.327Z,16.42
2022-12-11T16:14:07.698Z,13.25
2022-12-11T16:16:35.171Z,12.20
2022-12-11T16:19:03.880Z,15.00
2022-12-11T16:21:32.020Z,12.27
2022-12-11T16:23:59.516Z,15.93
2022-12-11T16:26:26.492Z,11.43
2022-12-11T16:28:53.362Z,11.20
2022-12-11T16:31:21.352Z,12.95
2022-12-11T16:33:48.835Z,10.90
2022-12-11T16:36:18.304Z,12.02
2022-12-11T16:38:53.455Z,13.13
2022-12-11T16:41:22.901Z,16.60
2022-12-11T16:43:50.081Z,10.95
2022-12-11T16:46:21.884Z,12.80
2022-12-11T16:48:49.928Z,12.82
2022-12-11T16:51:17.969Z,12.20
2022-12-11T16:53:46.049Z,15.05
2022-12-11T16:56:13.657Z,14.75
2022-12-11T16:58:40.665Z,11.57
2022-12-11T17:01:17.062Z,12.77
2022-12-11T17:03:47.835Z,15.00
2022-12-11T17:06:17.286Z,13.50
2022-12-11T17:08:45.057Z,12.70
2022-12-11T17:11:15.446Z,12.68
2022-12-11T17:13:45.788Z,15.00
2022-12-11T17:18:45.808Z,12.43
2022-12-11T17:21:20.247Z,12.40
2022-12-11T17:23:52.873Z,11.85
2022-12-11T17:26:23.372Z,14.88
2022-12-11T17:28:53.488Z,10.70
2022-12-11T17:31:23.120Z,12.50
2022-12-11T17:34:03.096Z,13.30
2022-12-11T17:36:38.972Z,10.88
2022-12-11T17:39:06.493Z,10.20
2022-12-11T17:41:36.317Z,13.95
2022-12-11T17:44:06.756Z,13.23
2022-12-11T17:46:35.663Z,13.05
2022-12-11T17:49:04.940Z,11.23
2022-12-11T17:51:32.065Z,15.70
2022-12-11T17:54:01.188Z,12.15
2022-12-11T17:56:28.045Z,12.75
2022-12-11T17:58:58.501Z,15.60
2022-12-11T18:01:25.537Z,16.10
2022-12-11T18:04:04.582Z,11.85
2022-12-11T18:06:38.687Z,13.88
2022-12-11T18:09:13.932Z,14.55
2022-12-11T18:11:41.593Z,17.15
2022-12-11T18:14:16.697Z,16.27
2022-12-11T18:16:46.832Z,15.13
2022-12-11T18:19:15.607Z,12.98
2022-12-11T18:21:44.398Z,13.05
2022-12-11T18:24:11.780Z,13.23
2022-12-11T18:26:38.929Z,12.45
2022-12-11T18:31:51.984Z,13.63
2022-12-11T18:34:19.087Z,16.30
2022-12-11T18:36:49.221Z,15.30
2022-12-11T18:39:16.206Z,15.57
2022-12-11T18:42:32.337Z,18.90
2022-12-11T18:44:59.407Z,18.30
2022-12-11T18:47:27.182Z,14.80
2022-12-11T18:49:54.807Z,14.05
2022-12-11T18:52:24.210Z,16.92
2022-12-11T18:55:01.841Z,18.17
2022-12-11T18:57:34.100Z,14.25
2022-12-11T19:00:07.178Z,18.10
2022-12-11T19:02:35.983Z,15.43
2022-12-11T19:05:03.471Z,17.90
2022-12-11T19:07:34.610Z,17.65
2022-12-11T19:10:02.143Z,22.48
2022-12-11T19:12:29.527Z,19.23
2022-12-11T19:14:58.793Z,18.85
2022-12-11T19:17:25.817Z,13.32
2022-12-11T19:19:52.815Z,25.65
2022-12-11T19:22:27.613Z,15.48
2022-12-11T19:24:55.057Z,16.48
2022-12-11T19:27:22.440Z,17.48
2022-12-11T19:29:50.117Z,15.65
2022-12-11T19:32:17.044Z,14.95
2022-12-11T19:35:08.855Z,12.95
2022-12-11T19:37:36.037Z,14.32
2022-12-11T19:40:04.961Z,16.98
2022-12-11T19:42:34.533Z,17.08
2022-12-11T19:45:03.081Z,20.25
2022-12-11T19:51:08.659Z,16.45
2022-12-11T19:53:36.477Z,18.02
2022-12-11T19:56:04.368Z,16.17
2022-12-11T19:58:41.788Z,22.02
2022-12-11T20:01:17.274Z,20.40
2022-12-11T20:03:44.322Z,16.10
2022-12-11T20:06:11.685Z,20.55
2022-12-11T20:08:45.263Z,18.70
2022-12-11T20:11:20.904Z,19.80
2022-12-11T20:13:51.991Z,16.88
2022-12-11T20:22:13.555Z,19.30
2022-12-11T20:24:41.069Z,18.27
2022-12-11T20:27:12.395Z,18.85
2022-12-11T20:29:40.590Z,17.33
2022-12-11T20:32:11.477Z,19.50
2022-12-11T20:34:40.253Z,17.38
2022-12-11T20:37:09.291Z,25.13
2022-12-11T20:39:44.095Z,21.13
2022-12-11T20:42:19.430Z,23.30
2022-12-11T20:44:49.135Z,20.48
2022-12-11T20:47:21.078Z,20.92
2022-12-11T20:49:48.874Z,26.20
2022-12-11T20:52:17.193Z,29.33
2022-12-11T20:54:52.867Z,23.58
2022-12-11T20:57:30.228Z,26.48
2022-12-11T20:59:58.132Z,26.25
2022-12-11T21:02:25.923Z,27.95
2022-12-11T21:08:27.972Z,20.35
2022-12-11T21:11:49.308Z,23.58
2022-12-11T21:15:11.135Z,18.52
2022-12-11T21:18:23.835Z,17.33
2022-12-11T21:21:08.183Z,21.88
2022-12-11T21:23:35.718Z,22.10
2022-12-11T21:26:25.320Z,21.17
2022-12-11T21:32:27.590Z,20.92
2022-12-11T21:34:57.430Z,23.27
2022-12-11T21:37:44.495Z,26.27
2022-12-11T21:40:29.195Z,26.48
2022-12-11T21:42:57.742Z,28.35
2022-12-11T21:45:59.216Z,23.15
2022-12-11T21:48:13.214Z,28.95
2022-12-11T21:50:40.851Z,23.77
2022-12-11T21:53:08.235Z,23.00
2022-12-11T21:55:35.622Z,29.27
2022-12-11T21:58:05.838Z,29.38
2022-12-11T22:00:34.769Z,25.38
2022-12-11T22:03:02.185Z,23.73
2022-12-11T22:05:29.206Z,26.30
2022-12-11T22:07:56.759Z,25.92
2022-12-11T22:10:49.583Z,25.02
2022-12-11T22:13:20.507Z,26.42
2022-12-11T22:15:48.503Z,21.60
2022-12-11T22:18:18.142Z,22.58
2022-12-11T22:20:46.607Z,24.10
2022-12-11T22:23:14.243Z,23.20
2022-12-11T22:25:41.314Z,28.98
2022-12-11T22:28:08.813Z,22.80
2022-12-11T22:30:37.483Z,25.25
2022-12-11T22:33:05.039Z,28.48
2022-12-11T22:35:35.343Z,27.27
2022-12-11T22:38:02.342Z,25.90
2022-12-11T22:40:30.052Z,25.67
2022-12-11T22:42:57.455Z,29.48
2022-12-11T22:45:28.091Z,25.63
2022-12-11T22:47:55.831Z,25.33
2022-12-11T22:50:23.103Z,23.83
2022-12-11T22:52:50.543Z,25.15
2022-12-11T22:55:18.030Z,26.48
2022-12-11T22:57:45.583Z,23.52
2022-12-11T23:00:15.593Z,26.02
2022-12-11T23:02:43.163Z,26.75
2022-12-11T23:05:14.926Z,28.02
2022-12-11T23:07:43.405Z,28.00
2022-12-11T23:10:10.947Z,27.17
2022-12-11T23:12:55.756Z,23.30
2022-12-11T23:15:24.494Z,25.67
2022-12-11T23:17:52.027Z,28.05
2022-12-11T23:20:19.419Z,19.98
2022-12-11T23:22:47.199Z,25.00
2022-12-11T23:25:15.372Z,27.85
2022-12-11T23:27:44.561Z,25.23
2022-12-11T23:30:12.424Z,28.17
2022-12-11T23:32:39.963Z,22.90
2022-12-11T23:35:07.506Z,27.95
2022-12-11T23:37:34.556Z,29.17
2022-12-11T23:40:01.626Z,33.28
2022-12-11T23:42:31.273Z,24.08
2022-12-11T23:44:58.826Z,24.83
2022-12-11T23:47:26.360Z,30.30
2022-12-11T23:49:53.265Z,25.20
2022-12-11T23:52:22.600Z,22.35
2022-12-11T23:54:51.957Z,25.90
2022-12-11T23:57:19.244Z,24.90
2022-12-11T23:59:46.584Z,25.85
